KLM770 LSGG-EGLL
Flight info
| Callsign | KLM770 |
|---|---|
| Flight time | N/A |
| Altitude | 32000 |
| Route | SIROD Z124 IBABA DCT TUTAX DCT OBURO DCT OKRIX DCT CLM DCT KOPOR DCT ABNUR DCT DIMAL DCT ALESO |
| Aircraft | MD11/H-SDE1E2E3FGHIJ2J3J4J5M1RWXY/LB1D1 |
Departure
| Time | 2026-05-07 11:07 |
|---|---|
| Airport | Geneva International Airport (LSGG) |
Arrival
| Time | N/A |
|---|---|
| Airport | London Heathrow Airport (EGLL) |
| Time | Latitude | Longitude | Altitude | Speed | Heading |
|---|---|---|---|---|---|
| 2026-05-07 10:32 | 46.23356 | 6.10969 | 1409 ft | 0 kts | 135° |
| 2026-05-07 10:53 | 46.23366 | 6.10956 | 1410 ft | 3 kts | 135° |
| 2026-05-07 10:53 | 46.23379 | 6.10937 | 1410 ft | 3 kts | 135° |
| 2026-05-07 10:53 | 46.23392 | 6.10917 | 1407 ft | 3 kts | 135° |
| 2026-05-07 10:54 | 46.23406 | 6.10899 | 1407 ft | 3 kts | 135° |
| 2026-05-07 10:54 | 46.23409 | 6.10894 | 1406 ft | 0 kts | 135° |
| 2026-05-07 10:56 | 46.23406 | 6.10895 | 1407 ft | 1 kts | 147° |
| 2026-05-07 10:56 | 46.23396 | 6.10892 | 1410 ft | 3 kts | 188° |
| 2026-05-07 10:56 | 46.23363 | 6.10853 | 1405 ft | 8 kts | 224° |
| 2026-05-07 10:57 | 46.23358 | 6.10809 | 1407 ft | 4 kts | 286° |
| 2026-05-07 10:57 | 46.23381 | 6.10758 | 1409 ft | 9 kts | 306° |
| 2026-05-07 10:57 | 46.23410 | 6.10677 | 1406 ft | 6 kts | 272° |
| 2026-05-07 10:57 | 46.23397 | 6.10646 | 1406 ft | 7 kts | 231° |
| 2026-05-07 10:58 | 46.23338 | 6.10554 | 1408 ft | 17 kts | 225° |
| 2026-05-07 10:58 | 46.23259 | 6.10440 | 1408 ft | 15 kts | 225° |
| 2026-05-07 10:58 | 46.23193 | 6.10341 | 1408 ft | 13 kts | 227° |
| 2026-05-07 10:58 | 46.23135 | 6.10252 | 1409 ft | 11 kts | 228° |
| 2026-05-07 10:59 | 46.23086 | 6.10173 | 1409 ft | 10 kts | 228° |
| 2026-05-07 10:59 | 46.23043 | 6.10106 | 1410 ft | 9 kts | 226° |
| 2026-05-07 10:59 | 46.23008 | 6.10052 | 1408 ft | 6 kts | 225° |
| 2026-05-07 10:59 | 46.22989 | 6.10026 | 1407 ft | 7 kts | 224° |
| 2026-05-07 11:00 | 46.22942 | 6.09960 | 1412 ft | 10 kts | 224° |
| 2026-05-07 11:00 | 46.22896 | 6.09894 | 1412 ft | 8 kts | 224° |
| 2026-05-07 11:00 | 46.22861 | 6.09844 | 1410 ft | 7 kts | 225° |
| 2026-05-07 11:00 | 46.22826 | 6.09793 | 1410 ft | 9 kts | 225° |
| 2026-05-07 11:01 | 46.22782 | 6.09727 | 1409 ft | 9 kts | 226° |
| 2026-05-07 11:01 | 46.22729 | 6.09649 | 1411 ft | 12 kts | 225° |
| 2026-05-07 11:01 | 46.22665 | 6.09554 | 1412 ft | 13 kts | 226° |
| 2026-05-07 11:01 | 46.22610 | 6.09468 | 1411 ft | 10 kts | 227° |
| 2026-05-07 11:02 | 46.22573 | 6.09403 | 1412 ft | 6 kts | 237° |
| 2026-05-07 11:02 | 46.22564 | 6.09381 | 1414 ft | 0 kts | 242° |
| 2026-05-07 11:05 | 46.22561 | 6.09370 | 1415 ft | 4 kts | 244° |
| 2026-05-07 11:06 | 46.22548 | 6.09301 | 1419 ft | 10 kts | 262° |
| 2026-05-07 11:06 | 46.22555 | 6.09214 | 1421 ft | 7 kts | 288° |
| 2026-05-07 11:06 | 46.22598 | 6.09167 | 1428 ft | 10 kts | 355° |
| 2026-05-07 11:06 | 46.22689 | 6.09250 | 1428 ft | 25 kts | 42° |
| 2026-05-07 11:07 | 46.22963 | 6.09650 | 1422 ft | 101 kts | 45° |
| 2026-05-07 11:07 | 46.23680 | 6.10647 | 1589 ft | 164 kts | 44° |
| 2026-05-07 11:07 | 46.24479 | 6.11765 | 2925 ft | 161 kts | 45° |
| 2026-05-07 11:07 | 46.25304 | 6.13021 | 4015 ft | 176 kts | 45° |
| 2026-05-07 11:08 | 46.26157 | 6.14285 | 5213 ft | 178 kts | 43° |
| 2026-05-07 11:08 | 46.27040 | 6.15597 | 6251 ft | 190 kts | 46° |
| 2026-05-07 11:08 | 46.28000 | 6.17149 | 6666 ft | 232 kts | 47° |
| 2026-05-07 11:08 | 46.29186 | 6.19057 | 6820 ft | 276 kts | 47° |
| 2026-05-07 11:09 | 46.30502 | 6.21162 | 7753 ft | 283 kts | 47° |
| 2026-05-07 11:09 | 46.31857 | 6.23310 | 8865 ft | 292 kts | 47° |
| 2026-05-07 11:09 | 46.33258 | 6.25492 | 9980 ft | 299 kts | 47° |
| 2026-05-07 11:09 | 46.34742 | 6.27780 | 10418 ft | 330 kts | 47° |
| 2026-05-07 11:10 | 46.36413 | 6.30350 | 10597 ft | 367 kts | 47° |
| 2026-05-07 11:10 | 46.38190 | 6.33080 | 11546 ft | 376 kts | 47° |
| 2026-05-07 11:10 | 46.40009 | 6.35854 | 12553 ft | 382 kts | 44° |
| 2026-05-07 11:10 | 46.42167 | 6.38072 | 13521 ft | 387 kts | 25° |
| 2026-05-07 11:11 | 46.44741 | 6.39243 | 14432 ft | 390 kts | 7° |
| 2026-05-07 11:11 | 46.47455 | 6.39216 | 15325 ft | 391 kts | 348° |
| 2026-05-07 11:11 | 46.50031 | 6.38015 | 16168 ft | 393 kts | 331° |
| 2026-05-07 11:11 | 46.52329 | 6.35848 | 16972 ft | 396 kts | 320° |
| 2026-05-07 11:12 | 46.54478 | 6.33287 | 17798 ft | 401 kts | 317° |
| 2026-05-07 11:12 | 46.56588 | 6.30617 | 18551 ft | 408 kts | 316° |
| 2026-05-07 11:12 | 46.58732 | 6.27861 | 19219 ft | 414 kts | 316° |
| 2026-05-07 11:12 | 46.60938 | 6.25060 | 19850 ft | 419 kts | 319° |
| 2026-05-07 11:13 | 46.63055 | 6.22117 | 20440 ft | 422 kts | 308° |
| 2026-05-07 11:13 | 46.64717 | 6.18594 | 21078 ft | 425 kts | 300° |
| 2026-05-07 11:13 | 46.66232 | 6.14855 | 21746 ft | 429 kts | 300° |
| 2026-05-07 11:13 | 46.67826 | 6.11205 | 22404 ft | 434 kts | 303° |
| 2026-05-07 11:14 | 46.69611 | 6.07573 | 23124 ft | 440 kts | 307° |
| 2026-05-07 11:14 | 46.71501 | 6.04059 | 23768 ft | 444 kts | 307° |
| 2026-05-07 11:14 | 46.73171 | 6.00309 | 24378 ft | 446 kts | 296° |
| 2026-05-07 11:14 | 46.74465 | 5.96167 | 25035 ft | 448 kts | 290° |
| 2026-05-07 11:15 | 46.75556 | 5.91907 | 25707 ft | 451 kts | 288° |
| 2026-05-07 11:15 | 46.76585 | 5.87566 | 26400 ft | 455 kts | 288° |
| 2026-05-07 11:15 | 46.77630 | 5.83128 | 27077 ft | 458 kts | 288° |
| 2026-05-07 11:15 | 46.78676 | 5.78759 | 27707 ft | 463 kts | 288° |
| 2026-05-07 11:16 | 46.79763 | 5.74312 | 28339 ft | 467 kts | 289° |
| 2026-05-07 11:16 | 46.80873 | 5.69825 | 29083 ft | 469 kts | 289° |
| 2026-05-07 11:16 | 46.81979 | 5.65390 | 29926 ft | 467 kts | 289° |
| 2026-05-07 11:16 | 46.83103 | 5.60896 | 30653 ft | 466 kts | 289° |
| 2026-05-07 11:17 | 46.84213 | 5.56450 | 31021 ft | 464 kts | 288° |
| 2026-05-07 11:17 | 46.85322 | 5.51996 | 31403 ft | 462 kts | 288° |
| 2026-05-07 11:17 | 46.86412 | 5.47608 | 31783 ft | 459 kts | 288° |
| 2026-05-07 11:17 | 46.87490 | 5.43261 | 31997 ft | 457 kts | 288° |
| 2026-05-07 11:18 | 46.89690 | 5.34448 | 32043 ft | 462 kts | 288° |
| 2026-05-07 11:18 | 46.92130 | 5.25738 | 32042 ft | 463 kts | 298° |
| 2026-05-07 11:19 | 46.94034 | 5.21904 | 32043 ft | 466 kts | 311° |
| 2026-05-07 11:19 | 46.96327 | 5.18599 | 32042 ft | 468 kts | 317° |
| 2026-05-07 11:19 | 47.01318 | 5.12409 | 32045 ft | 469 kts | 319° |
| 2026-05-07 11:20 | 47.06272 | 5.06158 | 32040 ft | 469 kts | 317° |
| 2026-05-07 11:20 | 47.11119 | 4.99766 | 32046 ft | 469 kts | 316° |
| 2026-05-07 11:21 | 47.15959 | 4.93272 | 32038 ft | 468 kts | 316° |
| 2026-05-07 11:21 | 47.20753 | 4.86816 | 32049 ft | 468 kts | 316° |
| 2026-05-07 11:22 | 47.25552 | 4.80344 | 32040 ft | 468 kts | 316° |
| 2026-05-07 11:22 | 47.30328 | 4.73892 | 32040 ft | 467 kts | 316° |
| 2026-05-07 11:23 | 47.35141 | 4.67374 | 32043 ft | 467 kts | 316° |
| 2026-05-07 11:23 | 47.39907 | 4.60902 | 32041 ft | 467 kts | 316° |
| 2026-05-07 11:24 | 47.44704 | 4.54370 | 32040 ft | 466 kts | 316° |
| 2026-05-07 11:24 | 47.49479 | 4.47853 | 32043 ft | 466 kts | 316° |
| 2026-05-07 11:25 | 47.54219 | 4.41364 | 32042 ft | 465 kts | 316° |
| 2026-05-07 11:25 | 47.58959 | 4.34804 | 32046 ft | 464 kts | 316° |
| 2026-05-07 11:26 | 47.63673 | 4.28282 | 32044 ft | 464 kts | 316° |
| 2026-05-07 11:26 | 47.67309 | 4.22329 | 32049 ft | 462 kts | 305° |
| 2026-05-07 11:27 | 47.70909 | 4.14488 | 32052 ft | 461 kts | 301° |
| 2026-05-07 11:27 | 47.74394 | 4.06491 | 32047 ft | 460 kts | 302° |
| 2026-05-07 11:28 | 47.77939 | 3.98500 | 32049 ft | 459 kts | 302° |
| 2026-05-07 11:28 | 47.81490 | 3.90582 | 32054 ft | 459 kts | 302° |
| 2026-05-07 11:29 | 47.85037 | 3.82676 | 32049 ft | 459 kts | 302° |
| 2026-05-07 11:29 | 47.88585 | 3.74741 | 32044 ft | 458 kts | 302° |
| 2026-05-07 11:30 | 47.92119 | 3.66809 | 32052 ft | 457 kts | 302° |
| 2026-05-07 11:30 | 47.95767 | 3.59078 | 32042 ft | 458 kts | 311° |
| 2026-05-07 11:31 | 47.98144 | 3.55853 | 32049 ft | 459 kts | 324° |
| 2026-05-07 11:31 | 48.00930 | 3.53480 | 32050 ft | 461 kts | 335° |
| 2026-05-07 11:31 | 48.06910 | 3.50013 | 32050 ft | 463 kts | 339° |
| 2026-05-07 11:32 | 48.15963 | 3.44840 | 32049 ft | 462 kts | 337° |
| 2026-05-07 11:33 | 48.21901 | 3.41161 | 32050 ft | 462 kts | 336° |
| 2026-05-07 11:33 | 48.27820 | 3.37428 | 32053 ft | 461 kts | 336° |
| 2026-05-07 11:34 | 48.33754 | 3.33677 | 32053 ft | 461 kts | 336° |
| 2026-05-07 11:34 | 48.39656 | 3.29944 | 32053 ft | 459 kts | 336° |
| 2026-05-07 11:35 | 48.45527 | 3.26223 | 32055 ft | 459 kts | 336° |
| 2026-05-07 11:35 | 48.51413 | 3.22483 | 32053 ft | 458 kts | 336° |
| 2026-05-07 11:36 | 48.57272 | 3.18751 | 32058 ft | 457 kts | 336° |
| 2026-05-07 11:36 | 48.63162 | 3.14990 | 32061 ft | 457 kts | 336° |
| 2026-05-07 11:37 | 48.69043 | 3.11224 | 32058 ft | 456 kts | 336° |
| 2026-05-07 11:37 | 48.74897 | 3.07466 | 32057 ft | 456 kts | 336° |
| 2026-05-07 11:38 | 48.80749 | 3.03675 | 32059 ft | 455 kts | 336° |
| 2026-05-07 11:38 | 48.86514 | 2.99777 | 32063 ft | 454 kts | 332° |
| 2026-05-07 11:39 | 48.89306 | 2.97505 | 32068 ft | 454 kts | 330° |
| 2026-05-07 11:39 | 48.93646 | 2.93686 | 32066 ft | 453 kts | 329° |
| 2026-05-07 11:40 | 48.99132 | 2.88776 | 32070 ft | 453 kts | 329° |
| 2026-05-07 11:40 | 49.04564 | 2.83960 | 32070 ft | 453 kts | 329° |
| 2026-05-07 11:41 | 49.10025 | 2.79140 | 32068 ft | 450 kts | 328° |
| 2026-05-07 11:41 | 49.15400 | 2.74389 | 32072 ft | 449 kts | 328° |
| 2026-05-07 11:42 | 49.20827 | 2.69579 | 32071 ft | 449 kts | 328° |
| 2026-05-07 11:42 | 49.26250 | 2.64759 | 32068 ft | 449 kts | 328° |
| 2026-05-07 11:43 | 49.31644 | 2.59953 | 32064 ft | 449 kts | 328° |
| 2026-05-07 11:43 | 49.37057 | 2.55118 | 32067 ft | 449 kts | 328° |
| 2026-05-07 11:44 | 49.42419 | 2.50316 | 32069 ft | 449 kts | 328° |
| 2026-05-07 11:44 | 49.47814 | 2.45472 | 32071 ft | 449 kts | 328° |
| 2026-05-07 11:45 | 49.53300 | 2.40601 | 32068 ft | 449 kts | 329° |
| 2026-05-07 11:45 | 49.58494 | 2.36159 | 32068 ft | 449 kts | 329° |
| 2026-05-07 11:46 | 49.63955 | 2.31507 | 32068 ft | 449 kts | 329° |
| 2026-05-07 11:46 | 49.69397 | 2.26870 | 32067 ft | 449 kts | 329° |
| 2026-05-07 11:47 | 49.74880 | 2.22192 | 32071 ft | 449 kts | 329° |
| 2026-05-07 11:47 | 49.80333 | 2.17530 | 32068 ft | 449 kts | 329° |
| 2026-05-07 11:48 | 49.85797 | 2.12846 | 32058 ft | 449 kts | 329° |
| 2026-05-07 11:48 | 49.90355 | 2.08929 | 32075 ft | 448 kts | 329° |
| 2026-05-07 11:49 | 49.95840 | 2.04205 | 32059 ft | 449 kts | 329° |
| 2026-05-07 11:49 | 50.01323 | 1.99469 | 32060 ft | 449 kts | 329° |